sensor_id;sensor_type;location;lat;lon;timestamp;noise_LAeq;noise_LA_min;noise_LA_max;noise_LA01;noise_LA95
66450;Laerm;56829;52.274;4.770;2023-02-07T00:00:05;34.89;32.77;37.04;;
66450;Laerm;56829;52.274;4.770;2023-02-07T00:00:16;35.33;33.23;37.40;;
66450;Laerm;56829;52.274;4.770;2023-02-07T00:00:26;35.04;33.12;36.95;;
66450;Laerm;56829;52.274;4.770;2023-02-07T00:00:36;35.07;33.27;36.61;;
66450;Laerm;56829;52.274;4.770;2023-02-07T00:00:47;35.84;33.66;38.72;;
66450;Laerm;56829;52.274;4.770;2023-02-07T00:00:57;37.84;35.01;42.40;;
66450;Laerm;56829;52.274;4.770;2023-02-07T00:01:14;37.21;33.33;42.53;;
66450;Laerm;56829;52.274;4.770;2023-02-07T00:01:25;34.91;32.92;36.88;;
66450;Laerm;56829;52.274;4.770;2023-02-07T00:01:36;35.29;33.40;37.90;;
66450;Laerm;56829;52.274;4.770;2023-02-07T00:01:46;36.92;34.11;42.32;;
66450;Laerm;56829;52.274;4.770;2023-02-07T00:01:56;35.22;33.17;38.06;;
66450;Laerm;56829;52.274;4.770;2023-02-07T00:02:06;36.06;33.88;38.30;;
66450;Laerm;56829;52.274;4.770;2023-02-07T00:02:16;35.13;32.99;37.77;;
66450;Laerm;56829;52.274;4.770;2023-02-07T00:02:27;34.41;32.81;36.76;;
66450;Laerm;56829;52.274;4.770;2023-02-07T00:02:37;34.23;32.17;36.59;;
66450;Laerm;56829;52.274;4.770;2023-02-07T00:02:47;33.73;32.23;35.36;;
66450;Laerm;56829;52.274;4.770;2023-02-07T00:02:58;34.62;32.53;40.33;;
66450;Laerm;56829;52.274;4.770;2023-02-07T00:03:08;41.64;32.64;56.74;;
66450;Laerm;56829;52.274;4.770;2023-02-07T00:03:18;34.76;32.23;38.24;;
66450;Laerm;56829;52.274;4.770;2023-02-07T00:03:28;33.83;32.10;36.01;;
66450;Laerm;56829;52.274;4.770;2023-02-07T00:03:39;33.60;32.03;35.55;;
66450;Laerm;56829;52.274;4.770;2023-02-07T00:03:49;33.50;31.90;35.57;;
66450;Laerm;56829;52.274;4.770;2023-02-07T00:04:00;34.70;32.33;40.41;;
66450;Laerm;56829;52.274;4.770;2023-02-07T00:04:10;34.09;32.10;38.17;;
66450;Laerm;56829;52.274;4.770;2023-02-07T00:04:20;33.72;32.27;35.25;;
66450;Laerm;56829;52.274;4.770;2023-02-07T00:04:32;34.31;32.24;36.19;;
66450;Laerm;56829;52.274;4.770;2023-02-07T00:04:42;35.43;33.07;37.23;;
66450;Laerm;56829;52.274;4.770;2023-02-07T00:04:52;33.95;32.54;35.51;;
66450;Laerm;56829;52.274;4.770;2023-02-07T00:05:03;34.71;32.95;36.94;;
66450;Laerm;56829;52.274;4.770;2023-02-07T00:05:13;34.06;32.32;36.73;;
66450;Laerm;56829;52.274;4.770;2023-02-07T00:05:24;33.77;31.78;35.53;;
66450;Laerm;56829;52.274;4.770;2023-02-07T00:05:34;34.25;32.49;35.70;;
66450;Laerm;56829;52.274;4.770;2023-02-07T00:05:45;34.21;32.78;37.73;;
66450;Laerm;56829;52.274;4.770;2023-02-07T00:06:02;34.15;31.98;36.01;;
66450;Laerm;56829;52.274;4.770;2023-02-07T00:06:17;35.91;32.61;39.51;;
66450;Laerm;56829;52.274;4.770;2023-02-07T00:06:29;35.11;32.34;39.85;;
66450;Laerm;56829;52.274;4.770;2023-02-07T00:06:40;35.18;33.25;37.72;;
66450;Laerm;56829;52.274;4.770;2023-02-07T00:06:50;34.81;32.36;38.43;;
66450;Laerm;56829;52.274;4.770;2023-02-07T00:07:01;34.48;32.57;36.68;;
66450;Laerm;56829;52.274;4.770;2023-02-07T00:07:11;35.88;33.61;38.00;;
66450;Laerm;56829;52.274;4.770;2023-02-07T00:07:21;35.58;33.38;40.30;;
66450;Laerm;56829;52.274;4.770;2023-02-07T00:07:31;35.74;33.86;37.80;;
66450;Laerm;56829;52.274;4.770;2023-02-07T00:07:41;36.65;33.74;39.43;;
66450;Laerm;56829;52.274;4.770;2023-02-07T00:07:51;36.15;33.38;39.02;;
66450;Laerm;56829;52.274;4.770;2023-02-07T00:08:03;36.49;33.48;39.74;;
66450;Laerm;56829;52.274;4.770;2023-02-07T00:08:14;36.53;33.70;39.13;;
66450;Laerm;56829;52.274;4.770;2023-02-07T00:08:25;35.79;34.01;37.74;;
66450;Laerm;56829;52.274;4.770;2023-02-07T00:08:35;36.11;34.38;37.97;;
66450;Laerm;56829;52.274;4.770;2023-02-07T00:08:45;35.78;33.29;38.62;;
66450;Laerm;56829;52.274;4.770;2023-02-07T00:08:57;35.94;33.92;38.75;;
66450;Laerm;56829;52.274;4.770;2023-02-07T00:09:08;35.78;33.65;41.13;;
66450;Laerm;56829;52.274;4.770;2023-02-07T00:09:18;35.18;33.12;38.41;;
66450;Laerm;56829;52.274;4.770;2023-02-07T00:09:28;35.16;33.37;39.13;;
66450;Laerm;56829;52.274;4.770;2023-02-07T00:09:38;36.39;32.93;42.06;;
66450;Laerm;56829;52.274;4.770;2023-02-07T00:09:49;36.00;33.78;38.41;;
66450;Laerm;56829;52.274;4.770;2023-02-07T00:09:59;36.30;33.89;38.26;;
66450;Laerm;56829;52.274;4.770;2023-02-07T00:10:09;35.80;33.57;40.00;;
66450;Laerm;56829;52.274;4.770;2023-02-07T00:10:20;35.89;33.30;40.03;;
66450;Laerm;56829;52.274;4.770;2023-02-07T00:10:30;35.40;33.00;38.81;;
66450;Laerm;56829;52.274;4.770;2023-02-07T00:10:40;36.53;34.64;41.20;;
66450;Laerm;56829;52.274;4.770;2023-02-07T00:10:50;36.65;34.70;39.50;;
66450;Laerm;56829;52.274;4.770;2023-02-07T00:11:04;36.06;34.12;39.58;;
66450;Laerm;56829;52.274;4.770;2023-02-07T00:11:15;35.92;33.65;39.34;;
66450;Laerm;56829;52.274;4.770;2023-02-07T00:11:26;34.96;33.10;38.34;;
66450;Laerm;56829;52.274;4.770;2023-02-07T00:11:37;35.74;33.70;38.04;;
66450;Laerm;56829;52.274;4.770;2023-02-07T00:11:49;36.28;34.00;39.08;;
66450;Laerm;56829;52.274;4.770;2023-02-07T00:11:59;37.86;34.72;41.40;;
66450;Laerm;56829;52.274;4.770;2023-02-07T00:12:09;36.45;34.18;39.28;;
66450;Laerm;56829;52.274;4.770;2023-02-07T00:12:20;36.14;33.66;39.26;;
66450;Laerm;56829;52.274;4.770;2023-02-07T00:12:30;36.04;34.15;37.80;;
66450;Laerm;56829;52.274;4.770;2023-02-07T00:12:40;36.34;34.24;39.38;;
66450;Laerm;56829;52.274;4.770;2023-02-07T00:12:51;37.09;34.80;41.03;;
66450;Laerm;56829;52.274;4.770;2023-02-07T00:13:01;36.95;34.60;40.02;;
66450;Laerm;56829;52.274;4.770;2023-02-07T00:13:11;37.21;35.21;39.92;;
66450;Laerm;56829;52.274;4.770;2023-02-07T00:13:21;37.41;33.97;41.65;;
66450;Laerm;56829;52.274;4.770;2023-02-07T00:13:31;35.03;33.38;37.78;;
66450;Laerm;56829;52.274;4.770;2023-02-07T00:13:42;35.26;33.34;36.71;;
66450;Laerm;56829;52.274;4.770;2023-02-07T00:13:54;36.62;33.69;43.99;;
66450;Laerm;56829;52.274;4.770;2023-02-07T00:14:05;35.36;33.29;38.66;;
66450;Laerm;56829;52.274;4.770;2023-02-07T00:14:16;35.61;33.46;40.43;;
66450;Laerm;56829;52.274;4.770;2023-02-07T00:14:26;35.45;32.84;42.07;;
66450;Laerm;56829;52.274;4.770;2023-02-07T00:14:36;35.96;32.95;46.89;;
66450;Laerm;56829;52.274;4.770;2023-02-07T00:14:46;35.07;33.09;36.65;;
66450;Laerm;56829;52.274;4.770;2023-02-07T00:14:57;34.57;33.07;36.18;;
66450;Laerm;56829;52.274;4.770;2023-02-07T00:15:07;35.34;33.61;39.09;;
66450;Laerm;56829;52.274;4.770;2023-02-07T00:15:17;35.09;33.08;37.18;;
66450;Laerm;56829;52.274;4.770;2023-02-07T00:15:28;34.61;32.74;35.97;;
66450;Laerm;56829;52.274;4.770;2023-02-07T00:15:38;34.82;32.87;37.98;;
66450;Laerm;56829;52.274;4.770;2023-02-07T00:15:49;34.92;32.65;42.62;;
66450;Laerm;56829;52.274;4.770;2023-02-07T00:16:00;35.26;33.38;37.43;;
66450;Laerm;56829;52.274;4.770;2023-02-07T00:16:11;35.34;33.20;36.85;;
66450;Laerm;56829;52.274;4.770;2023-02-07T00:16:22;35.36;33.52;37.91;;
66450;Laerm;56829;52.274;4.770;2023-02-07T00:16:36;35.01;33.03;36.76;;
66450;Laerm;56829;52.274;4.770;2023-02-07T00:16:46;37.54;34.28;42.83;;
66450;Laerm;56829;52.274;4.770;2023-02-07T00:16:56;35.91;33.76;40.68;;
66450;Laerm;56829;52.274;4.770;2023-02-07T00:17:06;35.53;33.36;37.61;;
66450;Laerm;56829;52.274;4.770;2023-02-07T00:17:16;35.32;33.17;37.06;;
66450;Laerm;56829;52.274;4.770;2023-02-07T00:17:27;37.03;33.82;41.54;;
66450;Laerm;56829;52.274;4.770;2023-02-07T00:17:38;36.48;33.60;47.78;;
66450;Laerm;56829;52.274;4.770;2023-02-07T00:17:48;35.10;32.78;37.06;;
66450;Laerm;56829;52.274;4.770;2023-02-07T00:17:58;35.92;33.65;38.05;;
66450;Laerm;56829;52.274;4.770;2023-02-07T00:18:08;36.55;34.19;40.63;;
66450;Laerm;56829;52.274;4.770;2023-02-07T00:18:18;36.99;34.10;43.93;;
66450;Laerm;56829;52.274;4.770;2023-02-07T00:18:29;36.51;33.69;41.23;;
66450;Laerm;56829;52.274;4.770;2023-02-07T00:18:39;35.29;33.64;36.80;;
66450;Laerm;56829;52.274;4.770;2023-02-07T00:18:49;35.19;33.62;37.88;;
66450;Laerm;56829;52.274;4.770;2023-02-07T00:19:01;35.30;33.63;37.18;;
66450;Laerm;56829;52.274;4.770;2023-02-07T00:19:11;36.50;33.90;39.40;;
66450;Laerm;56829;52.274;4.770;2023-02-07T00:19:21;46.65;37.84;53.72;;
66450;Laerm;56829;52.274;4.770;2023-02-07T00:19:31;58.39;48.69;65.30;;
66450;Laerm;56829;52.274;4.770;2023-02-07T00:19:42;45.51;41.24;52.05;;
66450;Laerm;56829;52.274;4.770;2023-02-07T00:19:52;41.00;36.42;45.55;;
66450;Laerm;56829;52.274;4.770;2023-02-07T00:20:02;38.18;35.98;40.41;;
66450;Laerm;56829;52.274;4.770;2023-02-07T00:20:12;37.97;35.64;40.49;;
66450;Laerm;56829;52.274;4.770;2023-02-07T00:20:23;36.61;34.18;39.45;;
66450;Laerm;56829;52.274;4.770;2023-02-07T00:20:34;36.35;34.15;38.12;;
66450;Laerm;56829;52.274;4.770;2023-02-07T00:20:44;36.62;34.66;39.80;;
66450;Laerm;56829;52.274;4.770;2023-02-07T00:20:58;36.62;34.42;39.47;;
66450;Laerm;56829;52.274;4.770;2023-02-07T00:21:09;36.03;34.05;37.92;;
66450;Laerm;56829;52.274;4.770;2023-02-07T00:21:20;36.65;34.76;39.17;;
66450;Laerm;56829;52.274;4.770;2023-02-07T00:21:32;36.34;34.24;39.00;;
66450;Laerm;56829;52.274;4.770;2023-02-07T00:21:42;35.80;33.14;37.68;;
66450;Laerm;56829;52.274;4.770;2023-02-07T00:21:52;36.22;34.26;38.70;;
66450;Laerm;56829;52.274;4.770;2023-02-07T00:22:02;36.62;34.74;40.92;;
66450;Laerm;56829;52.274;4.770;2023-02-07T00:22:13;36.18;34.65;38.02;;
66450;Laerm;56829;52.274;4.770;2023-02-07T00:22:23;36.69;34.43;38.56;;
66450;Laerm;56829;52.274;4.770;2023-02-07T00:22:33;37.32;35.17;39.38;;
66450;Laerm;56829;52.274;4.770;2023-02-07T00:22:44;37.83;34.71;46.18;;
66450;Laerm;56829;52.274;4.770;2023-02-07T00:22:54;36.15;34.12;38.59;;
66450;Laerm;56829;52.274;4.770;2023-02-07T00:23:05;37.19;35.18;40.49;;
66450;Laerm;56829;52.274;4.770;2023-02-07T00:23:15;36.93;35.07;39.25;;
66450;Laerm;56829;52.274;4.770;2023-02-07T00:23:25;36.69;34.90;38.52;;
66450;Laerm;56829;52.274;4.770;2023-02-07T00:23:35;36.76;34.13;40.60;;
66450;Laerm;56829;52.274;4.770;2023-02-07T00:23:46;37.33;34.94;40.61;;
66450;Laerm;56829;52.274;4.770;2023-02-07T00:23:56;36.23;34.19;41.64;;
66450;Laerm;56829;52.274;4.770;2023-02-07T00:24:07;39.28;34.46;49.24;;
66450;Laerm;56829;52.274;4.770;2023-02-07T00:24:17;41.32;35.66;49.14;;
66450;Laerm;56829;52.274;4.770;2023-02-07T00:24:27;41.68;35.95;50.77;;
66450;Laerm;56829;52.274;4.770;2023-02-07T00:24:37;38.54;34.37;48.88;;
66450;Laerm;56829;52.274;4.770;2023-02-07T00:24:48;37.04;34.03;40.88;;
66450;Laerm;56829;52.274;4.770;2023-02-07T00:24:58;36.33;34.17;38.34;;
66450;Laerm;56829;52.274;4.770;2023-02-07T00:25:08;38.84;34.83;43.00;;
66450;Laerm;56829;52.274;4.770;2023-02-07T00:25:18;39.49;36.27;42.07;;
66450;Laerm;56829;52.274;4.770;2023-02-07T00:25:29;38.52;35.52;41.41;;
66450;Laerm;56829;52.274;4.770;2023-02-07T00:25:39;37.19;35.26;39.04;;
66450;Laerm;56829;52.274;4.770;2023-02-07T00:25:49;36.44;34.35;38.51;;
66450;Laerm;56829;52.274;4.770;2023-02-07T00:25:59;36.94;34.25;40.25;;
66450;Laerm;56829;52.274;4.770;2023-02-07T00:26:10;37.20;34.86;42.81;;
66450;Laerm;56829;52.274;4.770;2023-02-07T00:26:21;37.49;35.08;39.89;;
66450;Laerm;56829;52.274;4.770;2023-02-07T00:26:32;38.44;35.48;42.40;;
66450;Laerm;56829;52.274;4.770;2023-02-07T00:26:42;37.18;34.84;39.06;;
66450;Laerm;56829;52.274;4.770;2023-02-07T00:26:53;36.73;34.82;38.39;;
66450;Laerm;56829;52.274;4.770;2023-02-07T00:27:04;37.05;35.14;39.10;;
66450;Laerm;56829;52.274;4.770;2023-02-07T00:27:14;36.76;34.79;39.16;;
66450;Laerm;56829;52.274;4.770;2023-02-07T00:27:24;36.82;34.86;43.15;;
66450;Laerm;56829;52.274;4.770;2023-02-07T00:27:34;36.56;34.82;38.16;;
66450;Laerm;56829;52.274;4.770;2023-02-07T00:27:45;39.26;35.01;53.31;;
66450;Laerm;56829;52.274;4.770;2023-02-07T00:27:55;37.01;35.01;41.53;;
66450;Laerm;56829;52.274;4.770;2023-02-07T00:28:05;37.11;34.27;40.79;;
66450;Laerm;56829;52.274;4.770;2023-02-07T00:28:15;36.75;34.65;40.30;;
66450;Laerm;56829;52.274;4.770;2023-02-07T00:28:26;37.77;35.33;39.68;;
66450;Laerm;56829;52.274;4.770;2023-02-07T00:28:36;37.39;34.87;39.29;;
66450;Laerm;56829;52.274;4.770;2023-02-07T00:28:47;37.42;35.04;41.67;;
66450;Laerm;56829;52.274;4.770;2023-02-07T00:28:57;43.60;36.13;56.74;;
66450;Laerm;56829;52.274;4.770;2023-02-07T00:29:08;40.78;36.79;50.68;;
66450;Laerm;56829;52.274;4.770;2023-02-07T00:29:19;40.36;38.01;44.98;;
66450;Laerm;56829;52.274;4.770;2023-02-07T00:29:29;40.38;37.37;45.60;;
66450;Laerm;56829;52.274;4.770;2023-02-07T00:29:41;53.89;41.01;64.31;;
66450;Laerm;56829;52.274;4.770;2023-02-07T00:29:51;43.90;37.37;52.19;;
66450;Laerm;56829;52.274;4.770;2023-02-07T00:30:02;38.39;35.92;42.52;;
66450;Laerm;56829;52.274;4.770;2023-02-07T00:30:12;37.81;35.45;40.99;;
66450;Laerm;56829;52.274;4.770;2023-02-07T00:30:22;38.32;35.15;40.34;;
66450;Laerm;56829;52.274;4.770;2023-02-07T00:30:32;38.31;35.09;40.24;;
66450;Laerm;56829;52.274;4.770;2023-02-07T00:30:43;51.52;36.95;63.63;;
66450;Laerm;56829;52.274;4.770;2023-02-07T00:31:16;36.85;34.27;41.30;;
66450;Laerm;56829;52.274;4.770;2023-02-07T00:31:27;37.76;35.39;41.87;;
66450;Laerm;56829;52.274;4.770;2023-02-07T00:31:38;37.84;35.41;40.75;;
66450;Laerm;56829;52.274;4.770;2023-02-07T00:31:49;38.15;35.47;41.09;;
66450;Laerm;56829;52.274;4.770;2023-02-07T00:31:59;36.94;35.10;39.19;;
66450;Laerm;56829;52.274;4.770;2023-02-07T00:32:09;36.47;34.50;39.65;;
66450;Laerm;56829;52.274;4.770;2023-02-07T00:32:20;35.87;33.01;38.43;;
66450;Laerm;56829;52.274;4.770;2023-02-07T00:32:30;36.23;33.52;39.27;;
66450;Laerm;56829;52.274;4.770;2023-02-07T00:32:41;35.65;33.82;38.44;;
66450;Laerm;56829;52.274;4.770;2023-02-07T00:32:51;35.74;33.86;38.05;;
66450;Laerm;56829;52.274;4.770;2023-02-07T00:33:01;36.12;33.79;39.37;;
66450;Laerm;56829;52.274;4.770;2023-02-07T00:33:11;36.53;34.63;39.60;;
66450;Laerm;56829;52.274;4.770;2023-02-07T00:33:22;36.20;34.09;38.13;;
66450;Laerm;56829;52.274;4.770;2023-02-07T00:33:33;36.64;34.79;38.00;;
66450;Laerm;56829;52.274;4.770;2023-02-07T00:33:43;36.42;33.95;38.74;;
66450;Laerm;56829;52.274;4.770;2023-02-07T00:33:55;35.55;33.87;38.51;;
66450;Laerm;56829;52.274;4.770;2023-02-07T00:34:06;37.08;34.00;39.76;;
66450;Laerm;56829;52.274;4.770;2023-02-07T00:34:16;35.85;33.69;37.55;;
66450;Laerm;56829;52.274;4.770;2023-02-07T00:34:26;37.10;34.52;40.46;;
66450;Laerm;56829;52.274;4.770;2023-02-07T00:34:37;36.22;33.81;40.34;;
66450;Laerm;56829;52.274;4.770;2023-02-07T00:34:47;35.79;33.42;38.31;;
66450;Laerm;56829;52.274;4.770;2023-02-07T00:34:59;36.81;34.93;39.00;;
66450;Laerm;56829;52.274;4.770;2023-02-07T00:35:10;37.49;34.70;40.12;;
66450;Laerm;56829;52.274;4.770;2023-02-07T00:35:20;37.65;35.25;41.77;;
66450;Laerm;56829;52.274;4.770;2023-02-07T00:35:30;36.36;34.19;38.45;;
66450;Laerm;56829;52.274;4.770;2023-02-07T00:35:41;37.12;34.89;40.15;;
66450;Laerm;56829;52.274;4.770;2023-02-07T00:35:58;38.62;35.63;40.77;;
66450;Laerm;56829;52.274;4.770;2023-02-07T00:36:10;36.12;33.51;39.78;;
66450;Laerm;56829;52.274;4.770;2023-02-07T00:36:21;35.33;33.21;37.95;;
66450;Laerm;56829;52.274;4.770;2023-02-07T00:36:32;36.02;33.91;38.80;;
66450;Laerm;56829;52.274;4.770;2023-02-07T00:36:43;36.77;34.38;39.24;;
66450;Laerm;56829;52.274;4.770;2023-02-07T00:36:53;35.62;33.70;38.00;;
66450;Laerm;56829;52.274;4.770;2023-02-07T00:37:04;35.75;33.79;38.05;;
66450;Laerm;56829;52.274;4.770;2023-02-07T00:37:15;36.76;33.79;41.27;;
66450;Laerm;56829;52.274;4.770;2023-02-07T00:37:25;35.92;33.64;38.70;;
66450;Laerm;56829;52.274;4.770;2023-02-07T00:37:35;35.30;33.22;36.93;;
66450;Laerm;56829;52.274;4.770;2023-02-07T00:37:45;36.26;34.07;38.30;;
66450;Laerm;56829;52.274;4.770;2023-02-07T00:37:55;36.13;34.03;39.05;;
66450;Laerm;56829;52.274;4.770;2023-02-07T00:38:06;36.39;33.76;39.30;;
66450;Laerm;56829;52.274;4.770;2023-02-07T00:38:16;35.61;33.81;38.10;;
66450;Laerm;56829;52.274;4.770;2023-02-07T00:38:26;36.20;34.20;38.43;;
66450;Laerm;56829;52.274;4.770;2023-02-07T00:38:37;38.43;36.19;41.72;;
66450;Laerm;56829;52.274;4.770;2023-02-07T00:38:47;37.42;33.34;41.96;;
66450;Laerm;56829;52.274;4.770;2023-02-07T00:38:59;35.43;33.67;37.77;;
66450;Laerm;56829;52.274;4.770;2023-02-07T00:39:13;35.83;34.08;37.40;;
66450;Laerm;56829;52.274;4.770;2023-02-07T00:39:24;34.90;32.86;38.99;;
66450;Laerm;56829;52.274;4.770;2023-02-07T00:39:34;34.94;32.70;38.55;;
66450;Laerm;56829;52.274;4.770;2023-02-07T00:39:44;34.63;32.95;36.32;;
66450;Laerm;56829;52.274;4.770;2023-02-07T00:39:55;35.01;32.51;39.85;;
66450;Laerm;56829;52.274;4.770;2023-02-07T00:40:05;35.54;33.28;40.98;;
66450;Laerm;56829;52.274;4.770;2023-02-07T00:40:16;34.68;33.00;36.77;;
66450;Laerm;56829;52.274;4.770;2023-02-07T00:40:26;36.27;34.35;39.54;;
66450;Laerm;56829;52.274;4.770;2023-02-07T00:40:37;36.59;35.05;38.26;;
66450;Laerm;56829;52.274;4.770;2023-02-07T00:40:47;37.47;34.89;39.83;;
66450;Laerm;56829;52.274;4.770;2023-02-07T00:40:57;38.52;36.60;41.48;;
66450;Laerm;56829;52.274;4.770;2023-02-07T00:41:07;47.60;39.18;54.81;;
66450;Laerm;56829;52.274;4.770;2023-02-07T00:41:17;55.09;39.28;65.45;;
66450;Laerm;56829;52.274;4.770;2023-02-07T00:41:28;37.12;34.04;42.05;;
66450;Laerm;56829;52.274;4.770;2023-02-07T00:41:39;35.66;34.09;37.70;;
66450;Laerm;56829;52.274;4.770;2023-02-07T00:41:49;35.57;33.13;38.07;;
66450;Laerm;56829;52.274;4.770;2023-02-07T00:42:00;34.16;32.23;36.19;;
66450;Laerm;56829;52.274;4.770;2023-02-07T00:42:10;35.41;31.63;38.52;;
66450;Laerm;56829;52.274;4.770;2023-02-07T00:42:20;35.27;33.25;37.44;;
66450;Laerm;56829;52.274;4.770;2023-02-07T00:42:30;34.78;33.32;36.60;;
66450;Laerm;56829;52.274;4.770;2023-02-07T00:42:40;35.85;33.75;40.05;;
66450;Laerm;56829;52.274;4.770;2023-02-07T00:42:51;34.96;33.33;37.10;;
66450;Laerm;56829;52.274;4.770;2023-02-07T00:43:01;35.14;33.38;38.61;;
66450;Laerm;56829;52.274;4.770;2023-02-07T00:43:11;35.96;33.10;41.86;;
66450;Laerm;56829;52.274;4.770;2023-02-07T00:43:21;38.34;33.40;44.77;;
66450;Laerm;56829;52.274;4.770;2023-02-07T00:43:32;41.47;33.39;50.72;;
66450;Laerm;56829;52.274;4.770;2023-02-07T00:43:43;42.45;34.64;53.06;;
66450;Laerm;56829;52.274;4.770;2023-02-07T00:43:53;38.85;34.12;46.97;;
66450;Laerm;56829;52.274;4.770;2023-02-07T00:44:04;38.49;34.86;44.04;;
66450;Laerm;56829;52.274;4.770;2023-02-07T00:44:14;39.70;34.02;50.19;;
66450;Laerm;56829;52.274;4.770;2023-02-07T00:44:25;36.70;34.05;41.00;;
66450;Laerm;56829;52.274;4.770;2023-02-07T00:44:35;36.36;33.91;38.41;;
66450;Laerm;56829;52.274;4.770;2023-02-07T00:44:45;36.18;33.56;38.08;;
66450;Laerm;56829;52.274;4.770;2023-02-07T00:44:55;35.04;33.09;36.74;;
66450;Laerm;56829;52.274;4.770;2023-02-07T00:45:05;35.09;33.08;37.37;;
66450;Laerm;56829;52.274;4.770;2023-02-07T00:45:16;35.51;33.02;38.18;;
66450;Laerm;56829;52.274;4.770;2023-02-07T00:45:26;36.81;34.00;43.77;;
66450;Laerm;56829;52.274;4.770;2023-02-07T00:45:36;38.36;32.57;44.61;;
66450;Laerm;56829;52.274;4.770;2023-02-07T00:45:46;51.53;32.92;66.63;;
66450;Laerm;56829;52.274;4.770;2023-02-07T00:45:57;51.33;32.69;67.91;;
66450;Laerm;56829;52.274;4.770;2023-02-07T00:46:08;34.62;32.31;38.77;;
66450;Laerm;56829;52.274;4.770;2023-02-07T00:46:20;34.21;32.11;36.10;;
66450;Laerm;56829;52.274;4.770;2023-02-07T00:46:31;34.22;32.39;37.05;;
66450;Laerm;56829;52.274;4.770;2023-02-07T00:46:41;34.91;32.58;36.89;;
66450;Laerm;56829;52.274;4.770;2023-02-07T00:46:51;34.78;32.77;36.67;;
66450;Laerm;56829;52.274;4.770;2023-02-07T00:47:01;35.01;33.16;37.08;;
66450;Laerm;56829;52.274;4.770;2023-02-07T00:47:11;35.03;33.10;36.90;;
66450;Laerm;56829;52.274;4.770;2023-02-07T00:47:22;35.41;33.09;39.01;;
66450;Laerm;56829;52.274;4.770;2023-02-07T00:47:32;35.40;33.65;37.34;;
66450;Laerm;56829;52.274;4.770;2023-02-07T00:47:42;37.70;34.53;42.54;;
66450;Laerm;56829;52.274;4.770;2023-02-07T00:47:52;37.93;34.35;45.56;;
66450;Laerm;56829;52.274;4.770;2023-02-07T00:48:02;37.70;34.73;42.95;;
66450;Laerm;56829;52.274;4.770;2023-02-07T00:48:13;38.45;34.22;44.63;;
66450;Laerm;56829;52.274;4.770;2023-02-07T00:48:23;38.38;32.70;45.87;;
66450;Laerm;56829;52.274;4.770;2023-02-07T00:48:33;35.84;32.98;39.98;;
66450;Laerm;56829;52.274;4.770;2023-02-07T00:48:44;35.76;33.45;38.57;;
66450;Laerm;56829;52.274;4.770;2023-02-07T00:48:54;35.30;33.55;36.98;;
66450;Laerm;56829;52.274;4.770;2023-02-07T00:49:04;36.13;33.78;42.68;;
66450;Laerm;56829;52.274;4.770;2023-02-07T00:49:15;36.56;34.41;46.36;;
66450;Laerm;56829;52.274;4.770;2023-02-07T00:49:25;36.28;34.04;40.84;;
66450;Laerm;56829;52.274;4.770;2023-02-07T00:49:35;37.80;34.62;45.57;;
66450;Laerm;56829;52.274;4.770;2023-02-07T00:49:46;36.40;33.35;40.52;;
66450;Laerm;56829;52.274;4.770;2023-02-07T00:49:56;35.33;33.14;37.07;;
66450;Laerm;56829;52.274;4.770;2023-02-07T00:50:06;34.57;32.78;38.26;;
66450;Laerm;56829;52.274;4.770;2023-02-07T00:50:16;34.81;33.02;36.60;;
66450;Laerm;56829;52.274;4.770;2023-02-07T00:50:26;35.12;33.25;37.78;;
66450;Laerm;56829;52.274;4.770;2023-02-07T00:50:37;36.17;33.70;43.26;;
66450;Laerm;56829;52.274;4.770;2023-02-07T00:50:47;35.48;33.11;37.84;;
66450;Laerm;56829;52.274;4.770;2023-02-07T00:50:57;35.50;32.67;39.29;;
66450;Laerm;56829;52.274;4.770;2023-02-07T00:51:08;35.19;33.40;37.21;;
66450;Laerm;56829;52.274;4.770;2023-02-07T00:51:19;35.72;33.23;42.76;;
66450;Laerm;56829;52.274;4.770;2023-02-07T00:51:29;35.70;33.69;38.30;;
66450;Laerm;56829;52.274;4.770;2023-02-07T00:51:39;36.13;33.99;38.18;;
66450;Laerm;56829;52.274;4.770;2023-02-07T00:51:50;35.37;33.93;37.12;;
66450;Laerm;56829;52.274;4.770;2023-02-07T00:52:00;36.24;33.77;39.09;;
66450;Laerm;56829;52.274;4.770;2023-02-07T00:52:10;37.11;33.60;39.83;;
66450;Laerm;56829;52.274;4.770;2023-02-07T00:52:20;36.56;34.01;40.32;;
66450;Laerm;56829;52.274;4.770;2023-02-07T00:52:30;36.20;32.96;38.24;;
66450;Laerm;56829;52.274;4.770;2023-02-07T00:52:41;34.99;33.12;36.62;;
66450;Laerm;56829;52.274;4.770;2023-02-07T00:52:51;35.83;33.65;37.74;;
66450;Laerm;56829;52.274;4.770;2023-02-07T00:53:01;36.52;33.93;38.42;;
66450;Laerm;56829;52.274;4.770;2023-02-07T00:53:11;35.78;33.67;37.96;;
66450;Laerm;56829;52.274;4.770;2023-02-07T00:53:22;35.18;33.56;38.13;;
66450;Laerm;56829;52.274;4.770;2023-02-07T00:53:32;37.67;34.23;41.56;;
66450;Laerm;56829;52.274;4.770;2023-02-07T00:53:42;36.04;33.72;39.76;;
66450;Laerm;56829;52.274;4.770;2023-02-07T00:53:53;36.31;34.13;40.43;;
66450;Laerm;56829;52.274;4.770;2023-02-07T00:54:04;36.79;34.83;40.06;;
66450;Laerm;56829;52.274;4.770;2023-02-07T00:54:14;35.92;33.22;40.80;;
66450;Laerm;56829;52.274;4.770;2023-02-07T00:54:24;35.78;33.70;38.98;;
66450;Laerm;56829;52.274;4.770;2023-02-07T00:54:35;36.73;34.31;40.66;;
66450;Laerm;56829;52.274;4.770;2023-02-07T00:54:45;40.12;34.34;48.65;;
66450;Laerm;56829;52.274;4.770;2023-02-07T00:54:55;40.10;33.02;48.61;;
66450;Laerm;56829;52.274;4.770;2023-02-07T00:55:05;38.67;33.66;50.28;;
66450;Laerm;56829;52.274;4.770;2023-02-07T00:55:16;36.73;32.78;42.69;;
66450;Laerm;56829;52.274;4.770;2023-02-07T00:55:26;35.72;33.36;37.48;;
66450;Laerm;56829;52.274;4.770;2023-02-07T00:55:36;35.95;33.91;40.98;;
66450;Laerm;56829;52.274;4.770;2023-02-07T00:55:46;36.97;33.88;41.21;;
66450;Laerm;56829;52.274;4.770;2023-02-07T00:55:56;36.04;33.67;40.01;;
66450;Laerm;56829;52.274;4.770;2023-02-07T00:56:07;37.87;34.23;43.87;;
66450;Laerm;56829;52.274;4.770;2023-02-07T00:56:17;37.63;34.55;44.39;;
66450;Laerm;56829;52.274;4.770;2023-02-07T00:56:28;37.23;34.95;40.38;;
66450;Laerm;56829;52.274;4.770;2023-02-07T00:56:38;36.80;34.13;39.24;;
66450;Laerm;56829;52.274;4.770;2023-02-07T00:56:49;36.57;33.95;40.72;;
66450;Laerm;56829;52.274;4.770;2023-02-07T00:56:59;35.70;33.27;37.64;;
66450;Laerm;56829;52.274;4.770;2023-02-07T00:57:09;36.86;34.14;41.42;;
66450;Laerm;56829;52.274;4.770;2023-02-07T00:57:19;36.83;34.32;41.20;;
66450;Laerm;56829;52.274;4.770;2023-02-07T00:57:29;36.42;34.44;38.82;;
66450;Laerm;56829;52.274;4.770;2023-02-07T00:57:40;36.90;34.11;39.22;;
66450;Laerm;56829;52.274;4.770;2023-02-07T00:57:50;36.41;34.41;38.54;;
66450;Laerm;56829;52.274;4.770;2023-02-07T00:58:00;36.69;34.45;38.77;;
66450;Laerm;56829;52.274;4.770;2023-02-07T00:58:10;36.85;35.04;38.92;;
66450;Laerm;56829;52.274;4.770;2023-02-07T00:58:20;37.99;35.52;40.67;;
66450;Laerm;56829;52.274;4.770;2023-02-07T00:58:31;47.94;38.74;54.82;;
66450;Laerm;56829;52.274;4.770;2023-02-07T00:58:41;50.38;38.37;59.43;;
66450;Laerm;56829;52.274;4.770;2023-02-07T00:58:51;39.10;36.37;42.47;;
66450;Laerm;56829;52.274;4.770;2023-02-07T00:59:02;37.35;35.51;38.96;;
66450;Laerm;56829;52.274;4.770;2023-02-07T00:59:12;36.32;34.20;40.42;;
66450;Laerm;56829;52.274;4.770;2023-02-07T00:59:23;37.60;35.01;39.79;;